Time;durP1;ratioP1;P1;durP2;ratioP2;P2;SDS_P1;SDS_P2;PMS_P1;PMS_P2;Temp;Humidity;BMP_temperature;BMP_pressure;BME280_temperature;BME280_humidity;BME280_pressure;Samples;Min_cycle;Max_cycle;Signal;HPM_P1;HPM_P2
2022/05/22 00:00:42;;;;;;;;;;;13.80;99.90;;;;;;5092258;28;19935;-73
2022/05/22 00:03:13;;;;;;;;;;;13.80;99.90;;;;;;5089121;28;19930;-73
2022/05/22 00:05:45;;;;;;;;;;;13.80;99.90;;;;;;5088094;28;20431;-73
2022/05/22 00:08:12;;;;;;;;;;;13.80;99.90;;;;;;5069479;28;20024;-73
2022/05/22 00:10:43;;;;;;;;;;;13.80;99.90;;;;;;5082651;28;19928;-73
2022/05/22 00:13:15;;;;;;;;;;;13.70;99.90;;;;;;5081933;28;20331;-73
2022/05/22 00:18:37;;;;;;;;;;;13.60;99.90;;;;;;5080690;28;19977;-73
2022/05/22 00:21:09;;;;;;;;;;;13.60;99.90;;;;;;5088038;28;19923;-73
2022/05/22 00:23:42;;;;;;;;;;;13.50;99.90;;;;;;5092238;28;19924;-73
2022/05/22 00:26:14;;;;;;;;;;;13.50;99.90;;;;;;5081171;28;19932;-74
2022/05/22 00:28:45;;;;;;;;;;;13.50;99.90;;;;;;5090806;28;19924;-73
2022/05/22 00:31:17;;;;;;;;;;;13.40;99.90;;;;;;5071660;28;19928;-73
2022/05/22 00:33:49;;;;;;;;;;;13.40;99.90;;;;;;5061970;28;19928;-73
2022/05/22 00:36:20;;;;;;;;;;;13.40;99.90;;;;;;5050270;28;20209;-73
2022/05/22 00:38:52;;;;;;;;;;;13.40;99.90;;;;;;5086859;28;20035;-73
2022/05/22 00:41:24;;;;;;;;;;;13.40;99.90;;;;;;5066013;28;19924;-73
2022/05/22 00:43:56;;;;;;;;;;;13.30;99.90;;;;;;5081264;28;19928;-73
2022/05/22 00:46:29;;;;;;;;;;;13.30;99.90;;;;;;5066165;28;19932;-73
2022/05/22 00:49:00;;;;;;;;;;;13.30;99.90;;;;;;5063776;28;19924;-73
2022/05/22 00:51:35;;;;;;;;;;;13.20;99.90;;;;;;5068463;28;19931;-73
2022/05/22 00:54:10;;;;;;;;;;;13.30;99.90;;;;;;5066300;28;19924;-73
2022/05/22 00:56:49;;;;;;;;;;;13.30;99.90;;;;;;5065338;28;19928;-73
2022/05/22 00:59:31;;;;;;;;;;;13.30;99.90;;;;;;5070201;28;19964;-73
2022/05/22 01:02:03;;;;;;;;;;;13.30;99.90;;;;;;5071034;28;19928;-73
2022/05/22 01:04:37;;;;;;;;;;;13.30;99.90;;;;;;5080630;28;19931;-73
2022/05/22 01:07:05;;;;;;;;;;;13.40;99.90;;;;;;5064957;28;20130;-73
2022/05/22 01:09:37;;;;;;;;;;;13.40;99.90;;;;;;5082062;28;19928;-73
2022/05/22 01:12:16;;;;;;;;;;;13.40;99.90;;;;;;5057616;28;19924;-73
2022/05/22 01:14:48;;;;;;;;;;;13.40;99.90;;;;;;5063378;28;19928;-73
2022/05/22 01:17:20;;;;;;;;;;;13.40;99.90;;;;;;5051516;28;19925;-73
2022/05/22 01:19:56;;;;;;;;;;;13.40;99.90;;;;;;5058994;28;19932;-73
2022/05/22 01:22:29;;;;;;;;;;;13.30;99.90;;;;;;5052552;28;19928;-73
2022/05/22 01:24:56;;;;;;;;;;;13.30;99.90;;;;;;5075955;28;19929;-73
2022/05/22 01:27:27;;;;;;;;;;;13.20;99.90;;;;;;5082776;28;19938;-73
2022/05/22 01:30:14;;;;;;;;;;;13.20;99.90;;;;;;5054768;28;19946;-73
2022/05/22 01:32:52;;;;;;;;;;;13.20;99.90;;;;;;5065272;28;20412;-73
2022/05/22 01:35:25;;;;;;;;;;;13.20;99.90;;;;;;5091226;28;20277;-73
2022/05/22 01:38:02;;;;;;;;;;;13.10;99.90;;;;;;5093984;28;20308;-73
2022/05/22 01:40:28;;;;;;;;;;;13.00;99.90;;;;;;5097943;28;19924;-73
2022/05/22 01:43:01;;;;;;;;;;;12.90;99.90;;;;;;5039292;28;19924;-73
2022/05/22 01:45:29;;;;;;;;;;;12.80;99.90;;;;;;5080686;28;19928;-73
2022/05/22 01:48:02;;;;;;;;;;;12.80;99.90;;;;;;5051354;28;19975;-73
2022/05/22 01:50:39;;;;;;;;;;;12.80;99.90;;;;;;5069989;28;19931;-73
2022/05/22 01:53:12;;;;;;;;;;;12.80;99.90;;;;;;5052578;28;20011;-73
2022/05/22 01:55:46;;;;;;;;;;;12.70;99.90;;;;;;5059250;28;19937;-72
2022/05/22 01:58:19;;;;;;;;;;;12.70;99.90;;;;;;5048084;28;20029;-73
2022/05/22 02:00:51;;;;;;;;;;;12.70;99.90;;;;;;5090373;28;20303;-73
2022/05/22 02:03:23;;;;;;;;;;;12.70;99.90;;;;;;5065393;28;19934;-73
2022/05/22 02:05:55;;;;;;;;;;;12.70;99.90;;;;;;5100752;28;19925;-73
2022/05/22 02:08:27;;;;;;;;;;;12.60;99.90;;;;;;5063236;28;19931;-73
2022/05/22 02:11:00;;;;;;;;;;;12.60;99.90;;;;;;5072571;28;19970;-73
2022/05/22 02:13:29;;;;;;;;;;;12.60;99.90;;;;;;5059771;28;19928;-73
2022/05/22 02:16:01;;;;;;;;;;;12.60;99.90;;;;;;5078568;28;19932;-73
2022/05/22 02:18:33;;;;;;;;;;;12.60;99.90;;;;;;5069886;28;20008;-73
2022/05/22 02:21:04;;;;;;;;;;;12.50;99.90;;;;;;5091068;28;19970;-73
2022/05/22 02:23:36;;;;;;;;;;;12.50;99.90;;;;;;5060326;28;19925;-73
2022/05/22 02:26:09;;;;;;;;;;;12.50;99.90;;;;;;5087336;28;19924;-73
2022/05/22 02:28:44;;;;;;;;;;;12.50;99.90;;;;;;5061720;28;19924;-73
2022/05/22 02:31:11;;;;;;;;;;;12.40;99.90;;;;;;5085068;28;20149;-73
2022/05/22 02:33:40;;;;;;;;;;;12.40;99.90;;;;;;5070945;28;19932;-72
2022/05/22 02:36:14;;;;;;;;;;;12.40;99.90;;;;;;5058743;28;19924;-73
2022/05/22 02:38:45;;;;;;;;;;;12.40;99.90;;;;;;5053590;28;19940;-73
2022/05/22 02:41:17;;;;;;;;;;;12.40;99.90;;;;;;5063903;28;19934;-73
2022/05/22 02:43:55;;;;;;;;;;;12.30;99.90;;;;;;5062455;28;20461;-73
2022/05/22 02:46:27;;;;;;;;;;;12.30;99.90;;;;;;5082233;28;19955;-73
2022/05/22 02:48:58;;;;;;;;;;;12.30;99.90;;;;;;5081923;28;20293;-73
2022/05/22 02:51:35;;;;;;;;;;;12.30;99.90;;;;;;5086046;28;20403;-73
2022/05/22 02:54:06;;;;;;;;;;;12.20;99.90;;;;;;5066786;28;19951;-73
2022/05/22 02:56:55;;;;;;;;;;;12.10;99.90;;;;;;5087367;28;19990;-73
2022/05/22 02:59:35;;;;;;;;;;;12.10;99.90;;;;;;5051169;28;20407;-73
2022/05/22 03:02:30;;;;;;;;;;;12.00;99.90;;;;;;5081877;28;20017;-73
2022/05/22 03:04:57;;;;;;;;;;;12.00;99.90;;;;;;5098447;28;19935;-73
2022/05/22 03:07:27;;;;;;;;;;;11.90;99.90;;;;;;5081116;28;19973;-73
2022/05/22 03:10:17;;;;;;;;;;;11.90;99.90;;;;;;5095832;28;19959;-73
2022/05/22 03:12:44;;;;;;;;;;;11.90;99.90;;;;;;5092683;28;19934;-73
2022/05/22 03:15:25;;;;;;;;;;;11.90;99.90;;;;;;5094959;28;19954;-72
2022/05/22 03:17:53;;;;;;;;;;;11.90;99.90;;;;;;5065218;28;20050;-73
2022/05/22 03:20:24;;;;;;;;;;;11.90;99.90;;;;;;5070041;28;19967;-73
2022/05/22 03:22:59;;;;;;;;;;;11.80;99.90;;;;;;5047316;28;19928;-73
2022/05/22 03:25:31;;;;;;;;;;;11.80;99.90;;;;;;5089901;28;20018;-73
2022/05/22 03:28:03;;;;;;;;;;;11.80;99.90;;;;;;5101419;28;20415;-73
2022/05/22 03:30:37;;;;;;;;;;;11.80;99.90;;;;;;5072709;28;19986;-73
2022/05/22 03:33:12;;;;;;;;;;;11.70;99.90;;;;;;5054400;28;19951;-73
2022/05/22 03:35:50;;;;;;;;;;;11.70;99.90;;;;;;5078303;28;19929;-73
2022/05/22 03:38:17;;;;;;;;;;;11.70;99.90;;;;;;5073209;28;19924;-73
2022/05/22 03:40:56;;;;;;;;;;;11.70;99.90;;;;;;5094351;28;20458;-72
2022/05/22 03:43:33;;;;;;;;;;;11.70;99.90;;;;;;5054640;28;19935;-72
2022/05/22 03:46:20;;;;;;;;;;;11.70;99.90;;;;;;5065676;28;20403;-72
2022/05/22 03:48:51;;;;;;;;;;;11.70;99.90;;;;;;5070244;28;19935;-72
2022/05/22 03:51:29;;;;;;;;;;;11.70;99.90;;;;;;5097663;28;19932;-73
2022/05/22 03:54:00;;;;;;;;;;;11.80;99.90;;;;;;5090284;28;19928;-72
2022/05/22 03:56:33;;;;;;;;;;;11.80;99.90;;;;;;5066345;28;19924;-73
2022/05/22 03:59:08;;;;;;;;;;;11.80;99.90;;;;;;5061801;28;19924;-72
2022/05/22 04:01:40;;;;;;;;;;;11.80;99.90;;;;;;5094490;28;19935;-72
2022/05/22 04:04:11;;;;;;;;;;;11.70;99.90;;;;;;5063184;28;19924;-72
2022/05/22 04:06:43;;;;;;;;;;;11.70;99.90;;;;;;5068425;28;20343;-72
2022/05/22 04:09:14;;;;;;;;;;;11.60;99.90;;;;;;5063596;28;20007;-73
2022/05/22 04:12:09;;;;;;;;;;;11.60;99.90;;;;;;5058857;28;20377;-72
2022/05/22 04:14:43;;;;;;;;;;;11.60;99.90;;;;;;5077272;28;19932;-72
2022/05/22 04:17:15;;;;;;;;;;;11.50;99.90;;;;;;5097668;28;20418;-72
2022/05/22 04:19:42;;;;;;;;;;;11.60;99.90;;;;;;5097090;28;20308;-72
2022/05/22 04:22:14;;;;;;;;;;;11.60;99.90;;;;;;5056389;28;19978;-72
2022/05/22 04:27:37;;;;;;;;;;;11.60;99.90;;;;;;5061395;28;19963;-72
2022/05/22 04:30:17;;;;;;;;;;;11.70;99.90;;;;;;5093763;28;19935;-73
2022/05/22 04:32:57;;;;;;;;;;;11.70;99.90;;;;;;5082000;28;19928;-72
2022/05/22 04:35:29;;;;;;;;;;;11.70;99.90;;;;;;5059083;28;20388;-72
2022/05/22 04:37:59;;;;;;;;;;;11.80;99.90;;;;;;5069918;28;20408;-72
2022/05/22 04:40:32;;;;;;;;;;;11.80;99.90;;;;;;5048696;28;20038;-72
2022/05/22 04:43:04;;;;;;;;;;;11.80;99.90;;;;;;5081258;28;19928;-72
2022/05/22 04:45:39;;;;;;;;;;;11.80;99.90;;;;;;5065369;28;19930;-73
2022/05/22 04:48:18;;;;;;;;;;;11.80;99.90;;;;;;5097427;28;19971;-71
2022/05/22 04:50:58;;;;;;;;;;;11.90;99.90;;;;;;5059054;28;19928;-72
2022/05/22 04:53:30;;;;;;;;;;;12.00;99.90;;;;;;5062457;28;19928;-72
2022/05/22 04:55:59;;;;;;;;;;;12.00;99.90;;;;;;5065806;28;19924;-72
2022/05/22 04:58:37;;;;;;;;;;;12.00;99.90;;;;;;5098841;28;19955;-72
2022/05/22 05:01:12;;;;;;;;;;;12.00;99.90;;;;;;5077595;28;20411;-72
2022/05/22 05:03:50;;;;;;;;;;;12.10;99.90;;;;;;5098882;28;19924;-72
2022/05/22 05:06:22;;;;;;;;;;;12.10;99.90;;;;;;5082704;28;19935;-72
2022/05/22 05:08:52;;;;;;;;;;;12.10;99.90;;;;;;5059760;28;19977;-73
2022/05/22 05:11:30;;;;;;;;;;;12.20;99.90;;;;;;5081148;28;19929;-73
2022/05/22 05:14:04;;;;;;;;;;;12.20;99.90;;;;;;5097545;28;20361;-72
2022/05/22 05:16:37;;;;;;;;;;;12.20;99.90;;;;;;5083335;28;19925;-72
2022/05/22 05:19:07;;;;;;;;;;;12.30;99.90;;;;;;5059724;28;20368;-72
2022/05/22 05:21:42;;;;;;;;;;;12.30;99.90;;;;;;5059024;28;19936;-72
2022/05/22 05:24:15;;;;;;;;;;;12.40;99.90;;;;;;5061742;28;19932;-73
2022/05/22 05:26:42;;;;;;;;;;;12.40;99.90;;;;;;5060700;28;19968;-72
2022/05/22 05:29:14;;;;;;;;;;;12.40;99.90;;;;;;5097899;28;20033;-73
2022/05/22 05:31:45;;;;;;;;;;;12.40;99.90;;;;;;5069025;28;19924;-72
2022/05/22 05:34:18;;;;;;;;;;;12.50;99.90;;;;;;5052951;28;20029;-72
2022/05/22 05:36:56;;;;;;;;;;;12.50;99.90;;;;;;5078486;28;20011;-72
2022/05/22 05:39:42;;;;;;;;;;;12.50;99.90;;;;;;5081727;28;19925;-72
2022/05/22 05:42:17;;;;;;;;;;;12.50;99.90;;;;;;5083394;28;19977;-73
2022/05/22 05:44:49;;;;;;;;;;;12.60;99.90;;;;;;5062781;28;20533;-72
2022/05/22 05:47:26;;;;;;;;;;;12.70;99.90;;;;;;5055896;28;19981;-72
2022/05/22 05:50:14;;;;;;;;;;;12.70;99.90;;;;;;5064613;28;20407;-72
2022/05/22 05:52:54;;;;;;;;;;;12.70;99.90;;;;;;5059757;28;20020;-72
2022/05/22 05:55:40;;;;;;;;;;;12.70;99.90;;;;;;5076098;28;19936;-72
2022/05/22 05:58:30;;;;;;;;;;;12.80;99.90;;;;;;5063637;28;19928;-72
2022/05/22 06:01:34;;;;;;;;;;;12.80;99.90;;;;;;5034432;28;20439;-72
2022/05/22 06:04:02;;;;;;;;;;;12.90;99.90;;;;;;5054102;28;19932;-72
2022/05/22 06:06:34;;;;;;;;;;;13.00;99.90;;;;;;5087559;28;19931;-72
2022/05/22 06:09:06;;;;;;;;;;;13.10;99.90;;;;;;5073855;28;20299;-72
2022/05/22 06:11:51;;;;;;;;;;;13.20;99.90;;;;;;5080914;28;19931;-72
2022/05/22 06:14:31;;;;;;;;;;;13.30;99.90;;;;;;5095511;28;19923;-74
2022/05/22 06:17:03;;;;;;;;;;;13.30;99.90;;;;;;5074345;28;20010;-73
2022/05/22 06:19:55;;;;;;;;;;;13.40;99.90;;;;;;5097731;28;20502;-72
2022/05/22 06:22:32;;;;;;;;;;;13.50;99.90;;;;;;5054267;28;19928;-72
2022/05/22 06:25:07;;;;;;;;;;;13.50;99.90;;;;;;5051980;28;20412;-72
2022/05/22 06:27:55;;;;;;;;;;;13.60;99.90;;;;;;5062914;28;20481;-72
2022/05/22 06:30:46;;;;;;;;;;;13.70;99.90;;;;;;5057714;28;19935;-73
2022/05/22 06:33:30;;;;;;;;;;;13.80;99.90;;;;;;5053278;28;19935;-71
2022/05/22 06:36:12;;;;;;;;;;;13.80;99.90;;;;;;5055507;28;19925;-70
2022/05/22 06:42:11;;;;;;;;;;;14.00;99.90;;;;;;5071640;28;19931;-72
2022/05/22 06:44:52;;;;;;;;;;;14.20;99.90;;;;;;5079898;28;19929;-71
2022/05/22 06:47:50;;;;;;;;;;;14.30;99.90;;;;;;5072018;28;19931;-72
2022/05/22 06:50:45;;;;;;;;;;;14.50;99.90;;;;;;5087224;28;19935;-71
2022/05/22 06:53:34;;;;;;;;;;;14.60;99.90;;;;;;5080843;28;19935;-71
2022/05/22 06:56:21;;;;;;;;;;;14.70;99.90;;;;;;5071778;28;19928;-71
2022/05/22 06:59:25;;;;;;;;;;;14.80;99.90;;;;;;5081919;28;19930;-71
2022/05/22 07:02:30;;;;;;;;;;;14.90;99.90;;;;;;5086469;28;20579;-72
2022/05/22 07:05:12;;;;;;;;;;;15.10;99.90;;;;;;5076652;28;19923;-71
2022/05/22 07:08:03;;;;;;;;;;;15.20;99.90;;;;;;5084730;28;19970;-71
2022/05/22 07:14:10;;;;;;;;;;;15.40;99.90;;;;;;5081213;28;19931;-70
2022/05/22 07:17:02;;;;;;;;;;;15.50;99.90;;;;;;5086595;28;19924;-71
2022/05/22 07:19:51;;;;;;;;;;;15.70;99.90;;;;;;5055622;28;19924;-70
2022/05/22 07:22:41;;;;;;;;;;;15.80;99.90;;;;;;5069436;28;19928;-71
2022/05/22 07:25:20;;;;;;;;;;;16.00;99.90;;;;;;5095450;28;19939;-71
2022/05/22 07:28:15;;;;;;;;;;;16.10;99.90;;;;;;5082440;28;20404;-71
2022/05/22 07:30:57;;;;;;;;;;;16.20;99.90;;;;;;5085802;28;19932;-72
2022/05/22 07:34:04;;;;;;;;;;;16.40;99.90;;;;;;5092001;28;19978;-73
2022/05/22 07:37:00;;;;;;;;;;;16.50;99.90;;;;;;5115210;27;19930;-75
2022/05/22 07:39:36;;;;;;;;;;;16.60;99.90;;;;;;5075673;28;19932;-73
2022/05/22 07:42:27;;;;;;;;;;;16.70;99.90;;;;;;5106017;27;20329;-72
2022/05/22 07:45:31;;;;;;;;;;;16.80;99.90;;;;;;5067277;28;19931;-72
2022/05/22 07:48:35;;;;;;;;;;;17.00;99.90;;;;;;5050396;28;20066;-72
2022/05/22 07:51:26;;;;;;;;;;;17.10;99.90;;;;;;5044480;28;19978;-72
2022/05/22 07:54:13;;;;;;;;;;;17.30;99.90;;;;;;5061931;28;20416;-72
2022/05/22 07:57:11;;;;;;;;;;;17.40;99.90;;;;;;5083237;28;19931;-72
2022/05/22 08:00:08;;;;;;;;;;;17.60;99.90;;;;;;5083983;28;21285;-72
2022/05/22 08:02:41;;;;;;;;;;;17.70;99.90;;;;;;5092198;28;20014;-72
2022/05/22 08:05:19;;;;;;;;;;;17.90;99.90;;;;;;5088630;28;19977;-73
2022/05/22 08:07:57;;;;;;;;;;;18.00;99.90;;;;;;5090503;28;20038;-72
2022/05/22 08:10:42;;;;;;;;;;;18.10;99.90;;;;;;5073894;28;20022;-72
2022/05/22 08:13:21;;;;;;;;;;;18.20;99.90;;;;;;5071459;28;19942;-72
2022/05/22 08:15:48;;;;;;;;;;;18.30;99.90;;;;;;5075257;28;19955;-72
2022/05/22 08:18:27;;;;;;;;;;;18.30;99.90;;;;;;5061660;28;19931;-72
2022/05/22 08:21:00;;;;;;;;;;;18.50;99.90;;;;;;5073575;28;20327;-71
2022/05/22 08:23:27;;;;;;;;;;;18.60;99.90;;;;;;5071757;28;19931;-72
2022/05/22 08:26:02;;;;;;;;;;;18.70;99.90;;;;;;5070168;28;19927;-72
2022/05/22 08:28:31;;;;;;;;;;;18.80;99.90;;;;;;5072772;28;20015;-75
2022/05/22 08:31:06;;;;;;;;;;;18.80;99.90;;;;;;5059364;28;20338;-72
2022/05/22 08:33:42;;;;;;;;;;;19.00;99.90;;;;;;5065135;28;20069;-72
2022/05/22 08:36:12;;;;;;;;;;;19.00;99.90;;;;;;5104802;27;19934;-72
2022/05/22 08:38:48;;;;;;;;;;;19.20;99.90;;;;;;5074310;28;19932;-72
2022/05/22 08:41:19;;;;;;;;;;;19.30;99.90;;;;;;5079019;28;19956;-71
2022/05/22 08:43:56;;;;;;;;;;;19.40;99.90;;;;;;5085190;28;19930;-71
2022/05/22 08:46:38;;;;;;;;;;;19.40;99.90;;;;;;5075489;28;20307;-71
2022/05/22 08:49:22;;;;;;;;;;;19.50;99.90;;;;;;5090621;28;19931;-71
2022/05/22 08:52:11;;;;;;;;;;;19.60;99.90;;;;;;5089264;28;19998;-71
2022/05/22 08:54:55;;;;;;;;;;;19.70;99.90;;;;;;5070584;28;20053;-71
2022/05/22 09:00:43;;;;;;;;;;;20.00;99.90;;;;;;5084005;28;19939;-71
2022/05/22 09:03:39;;;;;;;;;;;20.00;99.90;;;;;;5059288;28;19932;-70
2022/05/22 09:06:18;;;;;;;;;;;20.10;99.90;;;;;;5080279;28;19924;-70
2022/05/22 09:08:56;;;;;;;;;;;20.10;99.90;;;;;;5085271;28;19935;-72
2022/05/22 09:11:54;;;;;;;;;;;20.10;99.90;;;;;;5079723;28;19971;-71
2022/05/22 09:14:36;;;;;;;;;;;20.20;99.90;;;;;;5079471;28;19935;-71
2022/05/22 09:17:18;;;;;;;;;;;20.20;99.90;;;;;;5070366;28;20281;-70
2022/05/22 09:20:13;;;;;;;;;;;20.30;99.90;;;;;;5056043;28;19929;-71
2022/05/22 09:22:58;;;;;;;;;;;20.40;99.80;;;;;;5057189;28;20447;-71
2022/05/22 09:25:49;;;;;;;;;;;20.50;99.50;;;;;;5069897;28;19971;-70
2022/05/22 09:28:38;;;;;;;;;;;20.70;99.90;;;;;;5080288;28;19943;-72
2022/05/22 09:31:31;;;;;;;;;;;20.80;99.90;;;;;;5080088;28;19931;-71
2022/05/22 09:34:14;;;;;;;;;;;21.00;97.60;;;;;;5064427;28;19959;-71
2022/05/22 09:37:02;;;;;;;;;;;21.00;96.90;;;;;;5077932;28;19928;-72
2022/05/22 09:39:41;;;;;;;;;;;21.00;95.60;;;;;;5080775;28;19935;-70
2022/05/22 09:42:21;;;;;;;;;;;21.10;95.30;;;;;;5061649;28;20042;-71
2022/05/22 09:45:12;;;;;;;;;;;21.10;97.30;;;;;;5083517;28;20743;-71
2022/05/22 09:47:59;;;;;;;;;;;21.20;96.30;;;;;;5068964;28;19947;-72
2022/05/22 09:50:40;;;;;;;;;;;21.20;95.60;;;;;;5074216;28;19925;-72
2022/05/22 09:53:41;;;;;;;;;;;21.20;96.60;;;;;;5062513;28;20392;-71
2022/05/22 09:56:21;;;;;;;;;;;21.30;94.90;;;;;;5055346;28;19928;-71
2022/05/22 09:59:09;;;;;;;;;;;21.30;94.80;;;;;;5080629;28;20328;-72
2022/05/22 10:01:42;;;;;;;;;;;21.40;93.50;;;;;;5055505;28;20363;-71
2022/05/22 10:04:16;;;;;;;;;;;21.50;92.70;;;;;;5053775;28;19930;-71
2022/05/22 10:07:07;;;;;;;;;;;21.60;93.20;;;;;;5078520;28;19948;-71
2022/05/22 10:09:53;;;;;;;;;;;21.80;92.70;;;;;;5079774;28;20429;-71
2022/05/22 10:12:37;;;;;;;;;;;21.80;91.70;;;;;;5054391;28;19925;-71
2022/05/22 10:15:23;;;;;;;;;;;22.00;91.60;;;;;;5052110;28;19932;-71
2022/05/22 10:18:04;;;;;;;;;;;21.90;89.20;;;;;;5060630;28;19928;-71
2022/05/22 10:20:36;;;;;;;;;;;21.90;90.90;;;;;;5066780;28;19967;-71
2022/05/22 10:23:23;;;;;;;;;;;22.10;91.20;;;;;;5055479;28;20296;-72
2022/05/22 10:26:09;;;;;;;;;;;22.10;91.90;;;;;;5081868;28;19928;-72
2022/05/22 10:28:39;;;;;;;;;;;22.20;90.50;;;;;;5049339;28;19931;-71
2022/05/22 10:31:14;;;;;;;;;;;22.20;89.20;;;;;;5091729;28;20392;-71
2022/05/22 10:33:52;;;;;;;;;;;22.20;90.20;;;;;;5096032;28;19931;-71
2022/05/22 10:36:30;;;;;;;;;;;22.40;90.60;;;;;;5050148;28;19954;-72
2022/05/22 10:39:07;;;;;;;;;;;22.40;88.60;;;;;;5082893;28;19928;-71
2022/05/22 10:44:27;;;;;;;;;;;22.30;90.00;;;;;;5098011;28;20737;-71
2022/05/22 10:47:02;;;;;;;;;;;22.30;89.90;;;;;;5099005;28;20305;-72
2022/05/22 10:49:36;;;;;;;;;;;22.60;89.80;;;;;;5064060;28;19925;-72
2022/05/22 10:52:09;;;;;;;;;;;22.60;88.10;;;;;;5059030;28;19935;-71
2022/05/22 10:54:48;;;;;;;;;;;22.70;86.70;;;;;;5095061;28;19971;-71
2022/05/22 10:57:21;;;;;;;;;;;22.40;84.30;;;;;;5063396;28;20444;-71
2022/05/22 10:59:53;;;;;;;;;;;22.50;86.20;;;;;;5082764;28;20381;-71
2022/05/22 11:02:30;;;;;;;;;;;22.60;87.00;;;;;;5087912;28;20381;-71
2022/05/22 11:05:02;;;;;;;;;;;22.80;86.80;;;;;;5064093;28;19932;-71
2022/05/22 11:07:33;;;;;;;;;;;22.80;83.70;;;;;;5069250;28;20419;-71
2022/05/22 11:10:13;;;;;;;;;;;22.80;81.70;;;;;;5060324;28;19955;-71
2022/05/22 11:12:44;;;;;;;;;;;22.70;83.00;;;;;;5099810;28;19931;-72
2022/05/22 11:15:25;;;;;;;;;;;22.70;84.40;;;;;;5078007;28;19924;-71
2022/05/22 11:18:06;;;;;;;;;;;22.80;87.20;;;;;;5069487;28;20124;-71
2022/05/22 11:20:40;;;;;;;;;;;22.90;84.50;;;;;;5075875;28;19928;-72
2022/05/22 11:23:20;;;;;;;;;;;23.00;85.30;;;;;;5069072;28;20020;-72
2022/05/22 11:26:11;;;;;;;;;;;23.20;82.70;;;;;;5072295;28;19928;-72
2022/05/22 11:28:45;;;;;;;;;;;23.40;82.50;;;;;;5094623;28;19932;-72
2022/05/22 11:31:36;;;;;;;;;;;23.60;81.80;;;;;;5088732;28;19924;-71
2022/05/22 11:34:13;;;;;;;;;;;23.70;81.50;;;;;;5069497;28;20479;-72
2022/05/22 11:36:45;;;;;;;;;;;23.80;80.40;;;;;;5095170;28;20320;-72
2022/05/22 11:39:32;;;;;;;;;;;23.80;76.60;;;;;;5090577;28;19927;-71
2022/05/22 11:42:06;;;;;;;;;;;23.70;76.30;;;;;;5073433;28;19924;-71
2022/05/22 11:44:55;;;;;;;;;;;23.70;76.30;;;;;;5064762;28;20311;-71
2022/05/22 11:47:40;;;;;;;;;;;23.70;78.50;;;;;;5070186;28;19939;-72
2022/05/22 11:50:27;;;;;;;;;;;23.60;76.40;;;;;;5067887;28;20387;-71
2022/05/22 11:53:06;;;;;;;;;;;23.80;75.00;;;;;;5064017;28;20296;-72
2022/05/22 11:55:57;;;;;;;;;;;24.00;73.00;;;;;;5054699;28;20023;-72
2022/05/22 11:58:39;;;;;;;;;;;24.10;71.20;;;;;;5071760;28;20010;-71
2022/05/22 12:01:27;;;;;;;;;;;24.20;70.20;;;;;;5058308;28;19928;-71
2022/05/22 12:04:18;;;;;;;;;;;24.30;71.70;;;;;;5081403;28;20403;-71
2022/05/22 12:06:55;;;;;;;;;;;24.40;71.00;;;;;;5080279;28;19925;-72
2022/05/22 12:09:31;;;;;;;;;;;24.40;69.10;;;;;;5070369;28;20274;-71
2022/05/22 12:12:10;;;;;;;;;;;24.40;68.10;;;;;;5059507;28;20392;-72
2022/05/22 12:14:54;;;;;;;;;;;24.30;67.50;;;;;;5063888;28;19927;-71
2022/05/22 12:17:28;;;;;;;;;;;24.40;70.20;;;;;;5098125;28;19943;-71
2022/05/22 12:20:00;;;;;;;;;;;24.50;64.70;;;;;;5079978;28;19924;-72
2022/05/22 12:25:23;;;;;;;;;;;24.70;64.80;;;;;;5063558;28;19928;-72
2022/05/22 12:27:57;;;;;;;;;;;25.00;69.10;;;;;;5081183;28;20298;-72
2022/05/22 12:30:26;;;;;;;;;;;25.00;63.10;;;;;;5072524;28;19928;-72
2022/05/22 12:32:56;;;;;;;;;;;25.00;62.80;;;;;;5081933;28;19925;-72
2022/05/22 12:35:29;;;;;;;;;;;24.90;61.00;;;;;;5086825;28;19929;-72
2022/05/22 12:38:01;;;;;;;;;;;24.80;61.30;;;;;;5085226;28;19931;-72
2022/05/22 12:40:52;;;;;;;;;;;24.90;62.30;;;;;;5077163;28;19931;-72
2022/05/22 12:43:25;;;;;;;;;;;25.20;64.50;;;;;;5083292;28;19974;-72
2022/05/22 12:45:58;;;;;;;;;;;25.60;65.50;;;;;;5081997;28;20388;-72
2022/05/22 12:48:33;;;;;;;;;;;25.90;63.10;;;;;;5080551;28;19924;-72
2022/05/22 12:51:08;;;;;;;;;;;25.80;61.40;;;;;;5078764;28;20076;-72
2022/05/22 12:53:41;;;;;;;;;;;25.80;60.30;;;;;;5074081;28;19924;-72
2022/05/22 12:56:37;;;;;;;;;;;25.80;59.40;;;;;;5065205;28;19927;-72
2022/05/22 12:59:26;;;;;;;;;;;25.80;55.50;;;;;;5060393;28;20296;-72
2022/05/22 13:01:58;;;;;;;;;;;25.90;55.50;;;;;;5083291;28;19935;-73
2022/05/22 13:04:34;;;;;;;;;;;26.10;53.00;;;;;;5062248;28;19951;-72
2022/05/22 13:07:11;;;;;;;;;;;26.20;55.30;;;;;;5067487;28;19930;-72
2022/05/22 13:09:46;;;;;;;;;;;26.40;55.70;;;;;;5070497;28;19935;-72
2022/05/22 13:12:21;;;;;;;;;;;26.50;55.00;;;;;;5083336;28;20396;-72
2022/05/22 13:14:47;;;;;;;;;;;26.40;53.60;;;;;;5075371;28;19935;-71
2022/05/22 13:17:31;;;;;;;;;;;26.40;54.20;;;;;;5079644;28;19928;-71
2022/05/22 13:20:35;;;;;;;;;;;26.40;55.00;;;;;;5082713;28;20354;-71
2022/05/22 13:23:11;;;;;;;;;;;26.60;54.50;;;;;;5046674;28;19935;-71
2022/05/22 13:25:44;;;;;;;;;;;27.00;55.00;;;;;;5063810;28;19936;-73
2022/05/22 13:28:29;;;;;;;;;;;27.20;53.00;;;;;;5081967;28;20388;-72
2022/05/22 13:31:14;;;;;;;;;;;27.10;52.90;;;;;;5085317;28;19928;-71
2022/05/22 13:33:48;;;;;;;;;;;27.00;54.20;;;;;;5085290;28;19932;-71
2022/05/22 13:36:28;;;;;;;;;;;26.80;50.40;;;;;;5052836;28;19935;-71
2022/05/22 13:39:01;;;;;;;;;;;26.80;53.10;;;;;;5059644;28;20462;-71
2022/05/22 13:41:46;;;;;;;;;;;26.70;52.30;;;;;;5081829;28;19928;-72
2022/05/22 13:44:37;;;;;;;;;;;26.80;52.90;;;;;;5096016;28;19931;-71
2022/05/22 13:47:10;;;;;;;;;;;27.00;52.30;;;;;;5082299;28;19935;-71
2022/05/22 13:52:34;;;;;;;;;;;27.10;52.70;;;;;;5086065;28;19924;-71
2022/05/22 13:53:05;;;;;;;;;;;27.10;51.70;;;;;;5064171;28;19970;-71
2022/05/22 13:55:38;;;;;;;;;;;27.20;53.90;;;;;;5085017;28;19935;-71
2022/05/22 13:58:10;;;;;;;;;;;27.10;52.80;;;;;;5064911;28;19924;-72
2022/05/22 14:00:44;;;;;;;;;;;27.10;52.30;;;;;;5056035;28;20452;-71
2022/05/22 14:03:22;;;;;;;;;;;27.10;52.30;;;;;;5091554;28;19925;-71
2022/05/22 14:05:56;;;;;;;;;;;27.00;52.10;;;;;;5080094;28;20355;-71
2022/05/22 14:08:33;;;;;;;;;;;27.00;53.40;;;;;;5067260;28;19924;-71
2022/05/22 14:11:09;;;;;;;;;;;27.10;54.10;;;;;;5081801;28;19928;-71
2022/05/22 14:13:36;;;;;;;;;;;26.90;52.70;;;;;;5087459;28;19924;-71
2022/05/22 14:16:09;;;;;;;;;;;26.80;53.00;;;;;;5095256;28;19928;-71
2022/05/22 14:18:41;;;;;;;;;;;26.80;53.20;;;;;;5085192;28;20003;-72
2022/05/22 14:21:09;;;;;;;;;;;26.70;54.70;;;;;;5089395;28;19928;-71
2022/05/22 14:26:32;;;;;;;;;;;27.10;51.80;;;;;;5087177;28;19936;-72
2022/05/22 14:29:06;;;;;;;;;;;27.50;54.30;;;;;;5069034;28;19927;-71
2022/05/22 14:31:40;;;;;;;;;;;27.70;53.20;;;;;;5077944;28;19931;-71
2022/05/22 14:34:18;;;;;;;;;;;27.70;51.70;;;;;;5104995;27;19939;-71
2022/05/22 14:36:54;;;;;;;;;;;27.60;50.40;;;;;;5094214;28;19932;-72
2022/05/22 14:39:23;;;;;;;;;;;27.70;50.50;;;;;;5066008;28;20011;-72
2022/05/22 14:41:51;;;;;;;;;;;27.70;53.20;;;;;;5080695;28;19931;-72
2022/05/22 14:44:29;;;;;;;;;;;27.90;53.40;;;;;;5102981;27;19924;-75
2022/05/22 14:47:01;;;;;;;;;;;27.70;50.70;;;;;;5069664;28;19939;-72
2022/05/22 14:49:41;;;;;;;;;;;27.50;51.10;;;;;;5086097;28;19928;-71
2022/05/22 14:52:19;;;;;;;;;;;27.50;51.80;;;;;;5105262;27;19931;-71
2022/05/22 14:54:54;;;;;;;;;;;27.50;52.30;;;;;;5088138;28;19928;-71
2022/05/22 14:57:26;;;;;;;;;;;27.40;52.60;;;;;;5059763;28;19936;-72
2022/05/22 15:00:04;;;;;;;;;;;27.30;52.20;;;;;;5088325;28;20388;-70
2022/05/22 15:02:41;;;;;;;;;;;27.20;52.90;;;;;;5083377;28;19932;-71
2022/05/22 15:05:14;;;;;;;;;;;27.10;51.80;;;;;;5071598;28;19924;-71
2022/05/22 15:07:50;;;;;;;;;;;26.80;50.80;;;;;;5070196;28;19948;-72
2022/05/22 15:10:24;;;;;;;;;;;26.70;51.30;;;;;;5064092;28;19935;-71
2022/05/22 15:12:59;;;;;;;;;;;26.50;53.20;;;;;;5072260;28;19924;-71
2022/05/22 15:15:28;;;;;;;;;;;26.40;51.80;;;;;;5071025;28;19929;-71
2022/05/22 15:18:03;;;;;;;;;;;26.50;51.60;;;;;;5084863;28;19947;-71
2022/05/22 15:20:36;;;;;;;;;;;26.50;52.70;;;;;;5065630;28;20392;-71
2022/05/22 15:26:20;;;;;;;;;;;26.60;53.40;;;;;;5084117;28;19932;-71
2022/05/22 15:28:52;;;;;;;;;;;26.70;53.70;;;;;;5084464;28;19928;-71
2022/05/22 15:31:29;;;;;;;;;;;26.60;52.10;;;;;;5074179;28;19928;-72
2022/05/22 15:34:11;;;;;;;;;;;26.60;51.50;;;;;;5083681;28;19928;-71
2022/05/22 15:36:42;;;;;;;;;;;26.40;52.60;;;;;;5086264;28;19928;-71
2022/05/22 15:39:26;;;;;;;;;;;26.50;52.30;;;;;;5072016;28;19932;-71
2022/05/22 15:42:09;;;;;;;;;;;26.50;53.60;;;;;;5082327;28;19925;-71
2022/05/22 15:44:45;;;;;;;;;;;26.50;54.40;;;;;;5080254;28;19935;-72